sensor_id;sensor_type;location;lat;lon;timestamp;P1;durP1;ratioP1;P2;durP2;ratioP2
77586;SDS011;66744;49.716;17.158;2023-03-14T00:00:56;3.92;;;2.47;;
77586;SDS011;66744;49.716;17.158;2023-03-14T00:03:58;4.63;;;2.85;;
77586;SDS011;66744;49.716;17.158;2023-03-14T00:07:00;5.15;;;2.63;;
77586;SDS011;66744;49.716;17.158;2023-03-14T00:10:02;3.35;;;2.67;;
77586;SDS011;66744;49.716;17.158;2023-03-14T00:13:08;5.00;;;3.33;;
77586;SDS011;66744;49.716;17.158;2023-03-14T00:16:10;6.13;;;2.72;;
77586;SDS011;66744;49.716;17.158;2023-03-14T00:19:13;7.25;;;3.60;;
77586;SDS011;66744;49.716;17.158;2023-03-14T00:22:14;6.28;;;3.88;;
77586;SDS011;66744;49.716;17.158;2023-03-14T00:25:15;4.88;;;2.63;;
77586;SDS011;66744;49.716;17.158;2023-03-14T00:28:16;4.72;;;3.25;;
77586;SDS011;66744;49.716;17.158;2023-03-14T00:31:17;4.55;;;3.22;;
77586;SDS011;66744;49.716;17.158;2023-03-14T00:34:19;5.15;;;3.83;;
77586;SDS011;66744;49.716;17.158;2023-03-14T00:37:20;6.63;;;4.07;;
77586;SDS011;66744;49.716;17.158;2023-03-14T00:40:21;5.93;;;3.28;;
77586;SDS011;66744;49.716;17.158;2023-03-14T00:43:23;9.15;;;3.47;;
77586;SDS011;66744;49.716;17.158;2023-03-14T00:46:25;5.07;;;3.38;;
77586;SDS011;66744;49.716;17.158;2023-03-14T00:49:26;8.82;;;3.33;;
77586;SDS011;66744;49.716;17.158;2023-03-14T00:52:27;8.05;;;3.80;;
77586;SDS011;66744;49.716;17.158;2023-03-14T00:55:28;5.68;;;3.78;;
77586;SDS011;66744;49.716;17.158;2023-03-14T00:58:30;11.50;;;5.45;;
77586;SDS011;66744;49.716;17.158;2023-03-14T01:01:31;4.97;;;3.58;;
77586;SDS011;66744;49.716;17.158;2023-03-14T01:04:32;5.20;;;3.35;;
77586;SDS011;66744;49.716;17.158;2023-03-14T01:07:33;9.63;;;3.95;;
77586;SDS011;66744;49.716;17.158;2023-03-14T01:10:37;17.00;;;5.07;;
77586;SDS011;66744;49.716;17.158;2023-03-14T01:13:40;24.92;;;6.22;;
77586;SDS011;66744;49.716;17.158;2023-03-14T01:16:41;22.75;;;6.70;;
77586;SDS011;66744;49.716;17.158;2023-03-14T01:19:42;25.20;;;7.97;;
77586;SDS011;66744;49.716;17.158;2023-03-14T01:22:43;15.50;;;5.18;;
77586;SDS011;66744;49.716;17.158;2023-03-14T01:25:45;9.35;;;4.57;;
77586;SDS011;66744;49.716;17.158;2023-03-14T01:28:47;8.02;;;4.55;;
77586;SDS011;66744;49.716;17.158;2023-03-14T01:31:49;9.52;;;4.82;;
77586;SDS011;66744;49.716;17.158;2023-03-14T01:34:51;11.55;;;6.68;;
77586;SDS011;66744;49.716;17.158;2023-03-14T01:37:52;9.45;;;5.60;;
77586;SDS011;66744;49.716;17.158;2023-03-14T01:40:56;6.00;;;3.72;;
77586;SDS011;66744;49.716;17.158;2023-03-14T01:43:58;6.80;;;3.83;;
77586;SDS011;66744;49.716;17.158;2023-03-14T01:47:00;6.20;;;3.95;;
77586;SDS011;66744;49.716;17.158;2023-03-14T01:50:03;8.35;;;3.78;;
77586;SDS011;66744;49.716;17.158;2023-03-14T01:53:12;6.68;;;3.33;;
77586;SDS011;66744;49.716;17.158;2023-03-14T01:56:15;7.57;;;3.85;;
77586;SDS011;66744;49.716;17.158;2023-03-14T01:59:19;6.15;;;3.13;;
77586;SDS011;66744;49.716;17.158;2023-03-14T02:02:21;6.97;;;3.28;;
77586;SDS011;66744;49.716;17.158;2023-03-14T02:05:34;7.68;;;4.13;;
77586;SDS011;66744;49.716;17.158;2023-03-14T02:08:51;8.18;;;3.60;;
77586;SDS011;66744;49.716;17.158;2023-03-14T02:11:57;7.03;;;3.60;;
77586;SDS011;66744;49.716;17.158;2023-03-14T02:15:16;6.75;;;3.70;;
77586;SDS011;66744;49.716;17.158;2023-03-14T02:18:28;6.28;;;3.05;;
77586;SDS011;66744;49.716;17.158;2023-03-14T02:21:54;7.22;;;4.43;;
77586;SDS011;66744;49.716;17.158;2023-03-14T02:25:16;8.02;;;4.40;;
77586;SDS011;66744;49.716;17.158;2023-03-14T02:28:22;6.72;;;3.45;;
77586;SDS011;66744;49.716;17.158;2023-03-14T02:31:27;6.18;;;4.13;;
77586;SDS011;66744;49.716;17.158;2023-03-14T02:34:29;4.43;;;3.95;;
77586;SDS011;66744;49.716;17.158;2023-03-14T02:37:34;6.78;;;4.35;;
77586;SDS011;66744;49.716;17.158;2023-03-14T02:40:39;7.72;;;3.88;;
77586;SDS011;66744;49.716;17.158;2023-03-14T02:43:41;6.55;;;3.47;;
77586;SDS011;66744;49.716;17.158;2023-03-14T02:46:45;6.82;;;4.13;;
77586;SDS011;66744;49.716;17.158;2023-03-14T02:49:46;5.00;;;3.92;;
77586;SDS011;66744;49.716;17.158;2023-03-14T02:52:48;6.10;;;4.22;;
77586;SDS011;66744;49.716;17.158;2023-03-14T02:55:50;6.45;;;3.95;;
77586;SDS011;66744;49.716;17.158;2023-03-14T02:58:54;6.68;;;4.90;;
77586;SDS011;66744;49.716;17.158;2023-03-14T03:02:11;6.35;;;3.67;;
77586;SDS011;66744;49.716;17.158;2023-03-14T03:05:13;7.13;;;5.20;;
77586;SDS011;66744;49.716;17.158;2023-03-14T03:08:14;6.80;;;4.35;;
77586;SDS011;66744;49.716;17.158;2023-03-14T03:11:15;13.80;;;5.03;;
77586;SDS011;66744;49.716;17.158;2023-03-14T03:14:16;11.45;;;4.80;;
77586;SDS011;66744;49.716;17.158;2023-03-14T03:17:18;29.23;;;9.63;;
77586;SDS011;66744;49.716;17.158;2023-03-14T03:20:19;15.52;;;6.13;;
77586;SDS011;66744;49.716;17.158;2023-03-14T03:23:20;14.55;;;6.15;;
77586;SDS011;66744;49.716;17.158;2023-03-14T03:26:22;37.78;;;10.85;;
77586;SDS011;66744;49.716;17.158;2023-03-14T03:29:23;30.48;;;11.07;;
77586;SDS011;66744;49.716;17.158;2023-03-14T03:32:25;24.65;;;8.55;;
77586;SDS011;66744;49.716;17.158;2023-03-14T03:35:27;22.70;;;7.78;;
77586;SDS011;66744;49.716;17.158;2023-03-14T03:38:30;8.43;;;4.65;;
77586;SDS011;66744;49.716;17.158;2023-03-14T03:41:33;9.13;;;5.35;;
77586;SDS011;66744;49.716;17.158;2023-03-14T03:44:36;9.05;;;4.18;;
77586;SDS011;66744;49.716;17.158;2023-03-14T03:47:37;10.48;;;5.35;;
77586;SDS011;66744;49.716;17.158;2023-03-14T03:50:43;8.43;;;5.18;;
77586;SDS011;66744;49.716;17.158;2023-03-14T03:53:46;8.52;;;5.68;;
77586;SDS011;66744;49.716;17.158;2023-03-14T03:56:51;8.27;;;4.47;;
77586;SDS011;66744;49.716;17.158;2023-03-14T03:59:52;12.05;;;5.35;;
77586;SDS011;66744;49.716;17.158;2023-03-14T04:02:54;11.45;;;5.53;;
77586;SDS011;66744;49.716;17.158;2023-03-14T04:06:03;12.68;;;6.25;;
77586;SDS011;66744;49.716;17.158;2023-03-14T04:09:11;16.85;;;5.75;;
77586;SDS011;66744;49.716;17.158;2023-03-14T04:12:34;8.80;;;5.70;;
77586;SDS011;66744;49.716;17.158;2023-03-14T04:15:41;8.55;;;6.35;;
77586;SDS011;66744;49.716;17.158;2023-03-14T04:18:48;9.07;;;5.20;;
77586;SDS011;66744;49.716;17.158;2023-03-14T04:21:50;9.15;;;5.25;;
77586;SDS011;66744;49.716;17.158;2023-03-14T04:24:54;8.48;;;5.28;;
77586;SDS011;66744;49.716;17.158;2023-03-14T04:27:56;13.93;;;5.45;;
77586;SDS011;66744;49.716;17.158;2023-03-14T04:31:06;12.40;;;5.22;;
77586;SDS011;66744;49.716;17.158;2023-03-14T04:34:09;11.45;;;5.97;;
77586;SDS011;66744;49.716;17.158;2023-03-14T04:37:15;12.10;;;6.05;;
77586;SDS011;66744;49.716;17.158;2023-03-14T04:40:19;10.80;;;6.28;;
77586;SDS011;66744;49.716;17.158;2023-03-14T04:43:21;15.10;;;6.13;;
77586;SDS011;66744;49.716;17.158;2023-03-14T04:46:27;13.13;;;7.00;;
77586;SDS011;66744;49.716;17.158;2023-03-14T04:49:28;9.57;;;5.38;;
77586;SDS011;66744;49.716;17.158;2023-03-14T04:52:30;10.60;;;6.20;;
77586;SDS011;66744;49.716;17.158;2023-03-14T04:55:32;12.90;;;5.80;;
77586;SDS011;66744;49.716;17.158;2023-03-14T04:58:34;10.65;;;6.80;;
77586;SDS011;66744;49.716;17.158;2023-03-14T05:01:36;11.88;;;6.00;;
77586;SDS011;66744;49.716;17.158;2023-03-14T05:04:56;9.88;;;6.15;;
77586;SDS011;66744;49.716;17.158;2023-03-14T05:08:18;10.43;;;5.35;;
77586;SDS011;66744;49.716;17.158;2023-03-14T05:11:36;8.82;;;4.80;;
77586;SDS011;66744;49.716;17.158;2023-03-14T05:14:43;10.40;;;5.72;;
77586;SDS011;66744;49.716;17.158;2023-03-14T05:18:13;9.65;;;5.88;;
77586;SDS011;66744;49.716;17.158;2023-03-14T05:21:30;12.15;;;5.30;;
77586;SDS011;66744;49.716;17.158;2023-03-14T05:24:50;11.80;;;5.88;;
77586;SDS011;66744;49.716;17.158;2023-03-14T05:28:11;10.02;;;5.38;;
77586;SDS011;66744;49.716;17.158;2023-03-14T05:31:19;8.65;;;5.85;;
77586;SDS011;66744;49.716;17.158;2023-03-14T05:38:08;8.93;;;6.00;;
77586;SDS011;66744;49.716;17.158;2023-03-14T05:41:18;9.77;;;6.32;;
77586;SDS011;66744;49.716;17.158;2023-03-14T05:44:48;15.70;;;8.43;;
77586;SDS011;66744;49.716;17.158;2023-03-14T05:48:19;14.98;;;6.63;;
77586;SDS011;66744;49.716;17.158;2023-03-14T05:51:33;16.95;;;8.43;;
77586;SDS011;66744;49.716;17.158;2023-03-14T05:57:57;19.35;;;7.45;;
77586;SDS011;66744;49.716;17.158;2023-03-14T06:01:33;17.95;;;8.27;;
77586;SDS011;66744;49.716;17.158;2023-03-14T06:04:44;13.07;;;6.55;;
77586;SDS011;66744;49.716;17.158;2023-03-14T06:07:45;12.93;;;7.38;;
77586;SDS011;66744;49.716;17.158;2023-03-14T06:10:48;11.70;;;6.07;;
77586;SDS011;66744;49.716;17.158;2023-03-14T06:13:50;16.38;;;7.47;;
77586;SDS011;66744;49.716;17.158;2023-03-14T06:16:51;11.73;;;5.57;;
77586;SDS011;66744;49.716;17.158;2023-03-14T06:19:55;11.27;;;7.60;;
77586;SDS011;66744;49.716;17.158;2023-03-14T06:22:57;12.98;;;6.22;;
77586;SDS011;66744;49.716;17.158;2023-03-14T06:25:59;10.65;;;6.53;;
77586;SDS011;66744;49.716;17.158;2023-03-14T06:29:01;14.05;;;6.45;;
77586;SDS011;66744;49.716;17.158;2023-03-14T06:32:07;10.55;;;5.97;;
77586;SDS011;66744;49.716;17.158;2023-03-14T06:35:08;10.10;;;6.63;;
77586;SDS011;66744;49.716;17.158;2023-03-14T06:38:14;13.75;;;6.72;;
77586;SDS011;66744;49.716;17.158;2023-03-14T06:41:16;11.65;;;6.75;;
77586;SDS011;66744;49.716;17.158;2023-03-14T06:44:20;8.77;;;5.88;;
77586;SDS011;66744;49.716;17.158;2023-03-14T06:47:22;11.73;;;6.13;;
77586;SDS011;66744;49.716;17.158;2023-03-14T06:50:24;18.17;;;9.55;;
77586;SDS011;66744;49.716;17.158;2023-03-14T06:53:26;14.20;;;9.13;;
77586;SDS011;66744;49.716;17.158;2023-03-14T06:56:27;12.05;;;7.38;;
77586;SDS011;66744;49.716;17.158;2023-03-14T06:59:30;14.15;;;7.13;;
77586;SDS011;66744;49.716;17.158;2023-03-14T07:02:32;9.15;;;6.00;;
77586;SDS011;66744;49.716;17.158;2023-03-14T07:05:35;12.27;;;6.20;;
77586;SDS011;66744;49.716;17.158;2023-03-14T07:08:36;13.38;;;7.35;;
77586;SDS011;66744;49.716;17.158;2023-03-14T07:11:39;9.70;;;6.03;;
77586;SDS011;66744;49.716;17.158;2023-03-14T07:14:41;13.18;;;7.72;;
77586;SDS011;66744;49.716;17.158;2023-03-14T07:17:43;14.75;;;8.45;;
77586;SDS011;66744;49.716;17.158;2023-03-14T07:20:45;11.63;;;7.40;;
77586;SDS011;66744;49.716;17.158;2023-03-14T07:23:48;16.70;;;9.57;;
77586;SDS011;66744;49.716;17.158;2023-03-14T07:26:49;13.32;;;7.97;;
77586;SDS011;66744;49.716;17.158;2023-03-14T07:29:50;11.73;;;7.82;;
77586;SDS011;66744;49.716;17.158;2023-03-14T07:32:53;14.65;;;8.60;;
77586;SDS011;66744;49.716;17.158;2023-03-14T07:35:57;12.55;;;7.82;;
77586;SDS011;66744;49.716;17.158;2023-03-14T07:39:00;13.05;;;8.00;;
77586;SDS011;66744;49.716;17.158;2023-03-14T07:42:24;8.77;;;5.80;;
77586;SDS011;66744;49.716;17.158;2023-03-14T07:45:47;10.23;;;5.88;;
77586;SDS011;66744;49.716;17.158;2023-03-14T07:48:48;6.97;;;4.65;;
77586;SDS011;66744;49.716;17.158;2023-03-14T07:51:50;9.02;;;4.25;;
77586;SDS011;66744;49.716;17.158;2023-03-14T07:54:51;7.78;;;4.78;;
77586;SDS011;66744;49.716;17.158;2023-03-14T07:57:52;8.70;;;4.15;;
77586;SDS011;66744;49.716;17.158;2023-03-14T08:00:53;8.43;;;5.18;;
77586;SDS011;66744;49.716;17.158;2023-03-14T08:03:54;7.80;;;4.65;;
77586;SDS011;66744;49.716;17.158;2023-03-14T08:06:55;8.43;;;4.70;;
77586;SDS011;66744;49.716;17.158;2023-03-14T08:09:57;6.43;;;4.95;;
77586;SDS011;66744;49.716;17.158;2023-03-14T08:12:58;6.65;;;4.40;;
77586;SDS011;66744;49.716;17.158;2023-03-14T08:16:00;11.27;;;5.07;;
77586;SDS011;66744;49.716;17.158;2023-03-14T08:19:02;8.23;;;5.43;;
77586;SDS011;66744;49.716;17.158;2023-03-14T08:22:03;9.25;;;5.00;;
77586;SDS011;66744;49.716;17.158;2023-03-14T08:25:05;9.32;;;5.03;;
77586;SDS011;66744;49.716;17.158;2023-03-14T08:28:06;7.97;;;4.50;;
77586;SDS011;66744;49.716;17.158;2023-03-14T08:31:08;9.40;;;5.95;;
77586;SDS011;66744;49.716;17.158;2023-03-14T08:34:10;7.38;;;5.35;;
77586;SDS011;66744;49.716;17.158;2023-03-14T08:37:11;9.05;;;5.25;;
77586;SDS011;66744;49.716;17.158;2023-03-14T08:40:13;10.48;;;5.82;;
77586;SDS011;66744;49.716;17.158;2023-03-14T08:43:17;7.93;;;5.53;;
77586;SDS011;66744;49.716;17.158;2023-03-14T08:46:18;8.57;;;4.65;;
77586;SDS011;66744;49.716;17.158;2023-03-14T08:49:20;8.32;;;5.75;;
77586;SDS011;66744;49.716;17.158;2023-03-14T08:52:21;9.45;;;6.28;;
77586;SDS011;66744;49.716;17.158;2023-03-14T08:55:22;10.32;;;6.55;;
77586;SDS011;66744;49.716;17.158;2023-03-14T08:58:23;7.90;;;5.20;;
77586;SDS011;66744;49.716;17.158;2023-03-14T09:01:25;10.68;;;6.00;;
77586;SDS011;66744;49.716;17.158;2023-03-14T09:04:27;11.60;;;8.15;;
77586;SDS011;66744;49.716;17.158;2023-03-14T09:07:28;17.23;;;7.50;;
77586;SDS011;66744;49.716;17.158;2023-03-14T09:10:29;21.77;;;11.35;;
77586;SDS011;66744;49.716;17.158;2023-03-14T09:13:30;28.33;;;12.55;;
77586;SDS011;66744;49.716;17.158;2023-03-14T09:16:33;15.68;;;9.18;;
77586;SDS011;66744;49.716;17.158;2023-03-14T09:19:34;19.02;;;9.27;;
77586;SDS011;66744;49.716;17.158;2023-03-14T09:22:36;10.68;;;6.82;;
77586;SDS011;66744;49.716;17.158;2023-03-14T09:25:37;10.35;;;5.85;;
77586;SDS011;66744;49.716;17.158;2023-03-14T09:28:39;8.98;;;6.43;;
77586;SDS011;66744;49.716;17.158;2023-03-14T09:31:40;8.88;;;4.38;;
77586;SDS011;66744;49.716;17.158;2023-03-14T09:34:41;7.45;;;5.22;;
77586;SDS011;66744;49.716;17.158;2023-03-14T09:37:42;8.25;;;6.03;;
77586;SDS011;66744;49.716;17.158;2023-03-14T09:40:44;10.65;;;5.50;;
77586;SDS011;66744;49.716;17.158;2023-03-14T09:43:45;8.70;;;4.70;;
77586;SDS011;66744;49.716;17.158;2023-03-14T09:46:52;14.50;;;8.25;;
77586;SDS011;66744;49.716;17.158;2023-03-14T09:49:56;9.23;;;5.60;;
77586;SDS011;66744;49.716;17.158;2023-03-14T09:52:59;7.70;;;5.07;;
77586;SDS011;66744;49.716;17.158;2023-03-14T09:56:04;10.63;;;5.07;;
77586;SDS011;66744;49.716;17.158;2023-03-14T09:59:13;11.98;;;5.55;;
77586;SDS011;66744;49.716;17.158;2023-03-14T10:05:20;10.52;;;5.38;;
77586;SDS011;66744;49.716;17.158;2023-03-14T10:08:23;10.32;;;5.97;;
77586;SDS011;66744;49.716;17.158;2023-03-14T10:11:25;13.00;;;5.75;;
77586;SDS011;66744;49.716;17.158;2023-03-14T10:14:33;11.35;;;6.40;;
77586;SDS011;66744;49.716;17.158;2023-03-14T10:17:41;9.60;;;4.97;;
77586;SDS011;66744;49.716;17.158;2023-03-14T10:20:47;9.52;;;6.88;;
77586;SDS011;66744;49.716;17.158;2023-03-14T10:23:49;11.63;;;6.18;;
77586;SDS011;66744;49.716;17.158;2023-03-14T10:30:06;17.02;;;8.23;;
77586;SDS011;66744;49.716;17.158;2023-03-14T10:33:28;15.15;;;7.60;;
77586;SDS011;66744;49.716;17.158;2023-03-14T10:36:31;10.60;;;6.60;;
77586;SDS011;66744;49.716;17.158;2023-03-14T10:42:47;11.30;;;6.50;;
77586;SDS011;66744;49.716;17.158;2023-03-14T10:45:55;7.85;;;5.95;;
77586;SDS011;66744;49.716;17.158;2023-03-14T10:48:58;9.25;;;7.00;;
77586;SDS011;66744;49.716;17.158;2023-03-14T10:52:22;11.85;;;7.05;;
77586;SDS011;66744;49.716;17.158;2023-03-14T10:55:27;8.88;;;5.95;;
77586;SDS011;66744;49.716;17.158;2023-03-14T10:58:29;15.70;;;10.18;;
77586;SDS011;66744;49.716;17.158;2023-03-14T11:01:55;10.63;;;6.43;;
77586;SDS011;66744;49.716;17.158;2023-03-14T11:08:57;11.45;;;6.38;;
77586;SDS011;66744;49.716;17.158;2023-03-14T11:22:45;10.10;;;6.85;;
77586;SDS011;66744;49.716;17.158;2023-03-14T11:29:26;9.25;;;7.28;;
77586;SDS011;66744;49.716;17.158;2023-03-14T11:36:20;11.43;;;7.53;;
77586;SDS011;66744;49.716;17.158;2023-03-14T11:39:29;11.30;;;7.10;;
77586;SDS011;66744;49.716;17.158;2023-03-14T11:42:43;10.23;;;6.30;;
77586;SDS011;66744;49.716;17.158;2023-03-14T11:45:48;11.35;;;6.38;;
77586;SDS011;66744;49.716;17.158;2023-03-14T11:49:05;11.07;;;6.80;;
77586;SDS011;66744;49.716;17.158;2023-03-14T11:52:25;11.63;;;7.65;;
77586;SDS011;66744;49.716;17.158;2023-03-14T11:55:32;10.05;;;7.30;;
77586;SDS011;66744;49.716;17.158;2023-03-14T11:58:36;11.82;;;7.78;;
77586;SDS011;66744;49.716;17.158;2023-03-14T12:01:49;9.27;;;6.15;;
77586;SDS011;66744;49.716;17.158;2023-03-14T12:14:37;15.93;;;7.65;;
77586;SDS011;66744;49.716;17.158;2023-03-14T12:17:47;11.50;;;7.57;;
77586;SDS011;66744;49.716;17.158;2023-03-14T12:20:59;13.98;;;8.32;;
77586;SDS011;66744;49.716;17.158;2023-03-14T12:24:03;15.40;;;9.27;;
77586;SDS011;66744;49.716;17.158;2023-03-14T12:27:05;16.02;;;9.35;;
77586;SDS011;66744;49.716;17.158;2023-03-14T12:33:28;15.65;;;9.27;;
77586;SDS011;66744;49.716;17.158;2023-03-14T12:43:29;13.63;;;8.18;;
77586;SDS011;66744;49.716;17.158;2023-03-14T12:46:33;13.02;;;9.63;;
77586;SDS011;66744;49.716;17.158;2023-03-14T12:49:35;15.88;;;9.18;;
77586;SDS011;66744;49.716;17.158;2023-03-14T13:06:51;11.18;;;8.15;;
77586;SDS011;66744;49.716;17.158;2023-03-14T13:16:23;14.25;;;9.23;;
77586;SDS011;66744;49.716;17.158;2023-03-14T13:19:25;27.35;;;9.18;;
77586;SDS011;66744;49.716;17.158;2023-03-14T13:22:30;13.18;;;9.57;;
77586;SDS011;66744;49.716;17.158;2023-03-14T13:25:34;13.65;;;9.57;;
77586;SDS011;66744;49.716;17.158;2023-03-14T13:28:36;17.33;;;9.82;;
77586;SDS011;66744;49.716;17.158;2023-03-14T13:31:37;10.27;;;7.90;;
77586;SDS011;66744;49.716;17.158;2023-03-14T13:34:45;11.20;;;7.47;;
77586;SDS011;66744;49.716;17.158;2023-03-14T13:37:51;15.40;;;10.35;;
77586;SDS011;66744;49.716;17.158;2023-03-14T13:41:03;12.65;;;8.52;;
77586;SDS011;66744;49.716;17.158;2023-03-14T13:44:13;9.27;;;6.75;;
77586;SDS011;66744;49.716;17.158;2023-03-14T13:47:18;8.52;;;7.53;;
77586;SDS011;66744;49.716;17.158;2023-03-14T13:50:21;13.65;;;9.02;;
77586;SDS011;66744;49.716;17.158;2023-03-14T13:53:22;14.52;;;9.23;;
77586;SDS011;66744;49.716;17.158;2023-03-14T13:56:25;9.93;;;7.55;;
77586;SDS011;66744;49.716;17.158;2023-03-14T13:59:33;11.60;;;8.80;;
77586;SDS011;66744;49.716;17.158;2023-03-14T14:02:38;20.05;;;12.48;;
77586;SDS011;66744;49.716;17.158;2023-03-14T14:05:40;13.60;;;9.63;;
77586;SDS011;66744;49.716;17.158;2023-03-14T14:08:45;13.98;;;9.20;;
77586;SDS011;66744;49.716;17.158;2023-03-14T14:14:55;8.38;;;6.80;;
77586;SDS011;66744;49.716;17.158;2023-03-14T14:18:33;10.05;;;8.20;;
77586;SDS011;66744;49.716;17.158;2023-03-14T14:21:36;10.32;;;7.68;;
77586;SDS011;66744;49.716;17.158;2023-03-14T14:24:37;10.95;;;7.57;;
77586;SDS011;66744;49.716;17.158;2023-03-14T14:27:42;9.70;;;6.30;;
77586;SDS011;66744;49.716;17.158;2023-03-14T14:30:45;10.48;;;7.38;;
77586;SDS011;66744;49.716;17.158;2023-03-14T14:33:53;16.10;;;9.75;;
77586;SDS011;66744;49.716;17.158;2023-03-14T14:37:02;8.95;;;7.20;;
77586;SDS011;66744;49.716;17.158;2023-03-14T14:40:42;6.18;;;5.57;;
77586;SDS011;66744;49.716;17.158;2023-03-14T14:43:36;8.60;;;5.78;;
77586;SDS011;66744;49.716;17.158;2023-03-14T14:46:40;8.18;;;5.60;;
77586;SDS011;66744;49.716;17.158;2023-03-14T14:49:43;7.75;;;5.55;;
77586;SDS011;66744;49.716;17.158;2023-03-14T14:52:44;6.88;;;5.70;;
77586;SDS011;66744;49.716;17.158;2023-03-14T14:55:49;8.07;;;6.68;;
77586;SDS011;66744;49.716;17.158;2023-03-14T14:58:58;8.05;;;7.25;;
77586;SDS011;66744;49.716;17.158;2023-03-14T15:02:02;9.38;;;7.50;;
77586;SDS011;66744;49.716;17.158;2023-03-14T15:05:04;12.35;;;8.82;;
77586;SDS011;66744;49.716;17.158;2023-03-14T15:08:11;10.57;;;6.78;;
77586;SDS011;66744;49.716;17.158;2023-03-14T15:11:20;7.18;;;6.22;;
77586;SDS011;66744;49.716;17.158;2023-03-14T15:14:23;9.43;;;5.85;;
77586;SDS011;66744;49.716;17.158;2023-03-14T15:17:25;6.82;;;5.18;;
77586;SDS011;66744;49.716;17.158;2023-03-14T15:20:26;5.43;;;4.63;;
77586;SDS011;66744;49.716;17.158;2023-03-14T15:23:28;6.90;;;4.70;;
77586;SDS011;66744;49.716;17.158;2023-03-14T15:26:31;7.10;;;5.40;;
77586;SDS011;66744;49.716;17.158;2023-03-14T15:29:33;8.80;;;6.80;;
77586;SDS011;66744;49.716;17.158;2023-03-14T15:32:34;7.50;;;5.32;;
77586;SDS011;66744;49.716;17.158;2023-03-14T15:35:36;5.68;;;4.78;;
77586;SDS011;66744;49.716;17.158;2023-03-14T15:38:37;7.97;;;5.20;;
77586;SDS011;66744;49.716;17.158;2023-03-14T15:41:38;7.80;;;4.80;;
77586;SDS011;66744;49.716;17.158;2023-03-14T15:44:40;6.35;;;4.07;;
77586;SDS011;66744;49.716;17.158;2023-03-14T15:47:41;5.22;;;4.30;;
77586;SDS011;66744;49.716;17.158;2023-03-14T15:50:42;5.40;;;4.40;;
77586;SDS011;66744;49.716;17.158;2023-03-14T15:53:44;4.50;;;3.67;;
77586;SDS011;66744;49.716;17.158;2023-03-14T15:56:45;5.78;;;3.67;;
77586;SDS011;66744;49.716;17.158;2023-03-14T15:59:46;6.38;;;4.10;;
77586;SDS011;66744;49.716;17.158;2023-03-14T16:02:48;11.75;;;7.15;;
77586;SDS011;66744;49.716;17.158;2023-03-14T16:05:49;8.43;;;5.50;;
77586;SDS011;66744;49.716;17.158;2023-03-14T16:08:50;6.85;;;4.75;;
77586;SDS011;66744;49.716;17.158;2023-03-14T16:11:53;7.05;;;5.10;;
77586;SDS011;66744;49.716;17.158;2023-03-14T16:14:54;7.38;;;5.00;;
77586;SDS011;66744;49.716;17.158;2023-03-14T16:17:55;9.27;;;6.47;;
77586;SDS011;66744;49.716;17.158;2023-03-14T16:20:58;8.27;;;6.13;;
77586;SDS011;66744;49.716;17.158;2023-03-14T16:24:01;8.68;;;6.22;;
77586;SDS011;66744;49.716;17.158;2023-03-14T16:27:06;6.93;;;5.38;;
77586;SDS011;66744;49.716;17.158;2023-03-14T16:30:08;7.05;;;5.65;;
77586;SDS011;66744;49.716;17.158;2023-03-14T16:33:10;5.70;;;5.07;;
77586;SDS011;66744;49.716;17.158;2023-03-14T16:36:12;6.63;;;5.18;;
77586;SDS011;66744;49.716;17.158;2023-03-14T16:39:14;6.13;;;5.28;;
77586;SDS011;66744;49.716;17.158;2023-03-14T16:42:15;6.18;;;4.40;;
77586;SDS011;66744;49.716;17.158;2023-03-14T16:45:16;6.80;;;5.35;;
77586;SDS011;66744;49.716;17.158;2023-03-14T16:48:18;7.35;;;5.90;;
77586;SDS011;66744;49.716;17.158;2023-03-14T16:51:20;11.60;;;8.32;;
77586;SDS011;66744;49.716;17.158;2023-03-14T16:54:21;9.90;;;6.32;;
77586;SDS011;66744;49.716;17.158;2023-03-14T16:57:23;6.00;;;4.07;;
77586;SDS011;66744;49.716;17.158;2023-03-14T17:00:24;7.40;;;5.63;;
77586;SDS011;66744;49.716;17.158;2023-03-14T17:03:25;14.35;;;7.72;;
77586;SDS011;66744;49.716;17.158;2023-03-14T17:06:27;11.13;;;5.50;;
77586;SDS011;66744;49.716;17.158;2023-03-14T17:09:29;6.70;;;5.95;;
77586;SDS011;66744;49.716;17.158;2023-03-14T17:12:31;9.73;;;6.68;;
77586;SDS011;66744;49.716;17.158;2023-03-14T17:15:32;7.15;;;6.13;;
77586;SDS011;66744;49.716;17.158;2023-03-14T17:18:34;9.15;;;5.63;;
77586;SDS011;66744;49.716;17.158;2023-03-14T17:21:36;7.20;;;5.88;;
77586;SDS011;66744;49.716;17.158;2023-03-14T17:24:38;6.60;;;4.72;;
77586;SDS011;66744;49.716;17.158;2023-03-14T17:27:40;6.38;;;4.75;;
77586;SDS011;66744;49.716;17.158;2023-03-14T17:30:41;6.07;;;4.22;;
77586;SDS011;66744;49.716;17.158;2023-03-14T17:33:42;8.52;;;5.85;;
77586;SDS011;66744;49.716;17.158;2023-03-14T17:36:44;7.35;;;4.75;;
77586;SDS011;66744;49.716;17.158;2023-03-14T17:39:47;6.93;;;4.68;;
77586;SDS011;66744;49.716;17.158;2023-03-14T17:42:48;7.40;;;4.40;;
77586;SDS011;66744;49.716;17.158;2023-03-14T17:45:57;4.45;;;3.90;;
77586;SDS011;66744;49.716;17.158;2023-03-14T17:49:02;7.00;;;4.35;;
77586;SDS011;66744;49.716;17.158;2023-03-14T17:52:06;7.78;;;5.03;;
77586;SDS011;66744;49.716;17.158;2023-03-14T17:55:09;6.95;;;4.95;;
77586;SDS011;66744;49.716;17.158;2023-03-14T17:58:12;15.18;;;10.15;;
77586;SDS011;66744;49.716;17.158;2023-03-14T18:01:17;12.98;;;7.50;;
77586;SDS011;66744;49.716;17.158;2023-03-14T18:04:19;14.00;;;9.23;;
77586;SDS011;66744;49.716;17.158;2023-03-14T18:07:22;11.35;;;8.48;;
77586;SDS011;66744;49.716;17.158;2023-03-14T18:10:25;5.97;;;4.28;;
77586;SDS011;66744;49.716;17.158;2023-03-14T18:13:28;6.53;;;3.88;;
77586;SDS011;66744;49.716;17.158;2023-03-14T18:16:30;5.82;;;4.55;;
77586;SDS011;66744;49.716;17.158;2023-03-14T18:19:31;5.85;;;4.55;;
77586;SDS011;66744;49.716;17.158;2023-03-14T18:22:33;4.82;;;3.65;;
77586;SDS011;66744;49.716;17.158;2023-03-14T18:25:34;6.25;;;4.72;;
77586;SDS011;66744;49.716;17.158;2023-03-14T18:28:36;6.85;;;5.50;;
77586;SDS011;66744;49.716;17.158;2023-03-14T18:31:37;5.97;;;3.78;;
77586;SDS011;66744;49.716;17.158;2023-03-14T18:34:39;6.70;;;4.32;;
77586;SDS011;66744;49.716;17.158;2023-03-14T18:37:42;5.38;;;3.35;;
77586;SDS011;66744;49.716;17.158;2023-03-14T18:40:43;3.53;;;2.85;;
77586;SDS011;66744;49.716;17.158;2023-03-14T18:43:45;4.10;;;3.05;;
77586;SDS011;66744;49.716;17.158;2023-03-14T18:46:46;4.90;;;3.85;;
77586;SDS011;66744;49.716;17.158;2023-03-14T18:49:48;11.00;;;6.50;;
77586;SDS011;66744;49.716;17.158;2023-03-14T18:52:49;6.63;;;3.60;;
77586;SDS011;66744;49.716;17.158;2023-03-14T18:55:52;6.05;;;4.63;;
77586;SDS011;66744;49.716;17.158;2023-03-14T18:58:54;13.50;;;6.57;;
77586;SDS011;66744;49.716;17.158;2023-03-14T19:01:55;10.75;;;5.57;;
77586;SDS011;66744;49.716;17.158;2023-03-14T19:04:57;15.52;;;7.47;;
77586;SDS011;66744;49.716;17.158;2023-03-14T19:07:58;13.05;;;7.30;;
77586;SDS011;66744;49.716;17.158;2023-03-14T19:11:00;13.82;;;6.88;;
77586;SDS011;66744;49.716;17.158;2023-03-14T19:14:03;14.27;;;8.05;;
77586;SDS011;66744;49.716;17.158;2023-03-14T19:17:05;8.45;;;5.38;;
77586;SDS011;66744;49.716;17.158;2023-03-14T19:20:07;5.22;;;4.55;;
77586;SDS011;66744;49.716;17.158;2023-03-14T19:23:09;6.40;;;4.00;;
77586;SDS011;66744;49.716;17.158;2023-03-14T19:26:13;4.35;;;3.72;;
77586;SDS011;66744;49.716;17.158;2023-03-14T19:29:16;5.82;;;3.78;;